Flight Track Log - Related Links

Times and Time Zones

All times are in EDT time to prevent confusion due to time zone crossing. See the BOE5 flight status page for this flight to view local times or setup timezone preferences in your user account.

Time Position Orientation Groundspeed Altitude Reporting Facility
EDT Latitude Longitude Course Direction KTS MPH feet Rate Location/Type
Wed 01:25:32 PM 47.5878 -122.3647 317° Northwest 218 251 2,100  Level Seattle Center
Wed 01:26:33 PM 47.6369 -122.4333 317° Northwest 236 272 2,500 1,377 Climbing Seattle Center
Wed 01:27:34 PM 47.5939 -122.5028 227° Southwest 239 275 4,900 2,634 Climbing Seattle Center
Wed 01:28:36 PM 47.5403 -122.5594 216° Southwest 238 274 7,900 2,244 Climbing Seattle Center
Wed 01:29:37 PM 47.4778 -122.6222 214° Southwest 255 293 9,500 2,361 Climbing Seattle Center
Wed 01:30:38 PM 47.4136 -122.6867 214° Southwest 277 319 12,700 2,311 Climbing Seattle Center
Wed 01:31:39 PM 47.3506 -122.7519 215° Southwest 278 320 14,200 1,131 Climbing Seattle Center
Wed 01:32:40 PM 47.3003 -122.8381 229° Southwest 279 321 15,000 393 Climbing Seattle Center
Wed 01:33:41 PM 47.2686 -122.9517 248° West 277 319 15,000 49 Level Seattle Center
Wed 01:34:42 PM 47.2414 -123.0575 249° West 277 319 15,100 98 Climbing Seattle Center
Wed 01:35:44 PM 47.2122 -123.1636 248° West 280 322 15,200 49 Climbing Seattle Center
Wed 01:36:45 PM 47.1844 -123.2717 249° West 280 322 15,200  Level Seattle Center
Wed 01:37:46 PM 47.1594 -123.3633 248° West 218 251 15,200  Level Seattle Center
Wed 01:38:47 PM 47.1417 -123.4306 249° West 179 206 15,200  Level Seattle Center
Wed 01:39:48 PM 47.1233 -123.4975 248° West 179 206 15,200  Level Seattle Center
Wed 01:40:49 PM 47.1072 -123.5608 250° West 177 204 15,200  Level Seattle Center
Wed 01:41:50 PM 47.0831 -123.6472 248° West 216 249 15,200  Level Seattle Center
Wed 01:42:51 PM 47.0575 -123.7486 250° West 265 305 15,200  Level Seattle Center
Wed 01:43:53 PM 47.0289 -123.8508 248° West 272 313 15,200  Level Seattle Center
Wed 01:44:54 PM 47.0022 -123.9422 247° West 275 316 15,200  Level Seattle Center
Wed 01:45:55 PM 46.9744 -124.0500 249° West 282 325 15,200  Level Seattle Center
Wed 01:46:56 PM 46.9356 -124.1906 248° West 306 352 15,200  Level Seattle Center
Wed 01:47:57 PM 46.9050 -124.3097 249° West 312 359 15,200  Level Seattle Center
Wed 01:48:58 PM 46.8622 -124.4625 248° West 404 465 15,200  Level Seattle Center
Wed 01:49:59 PM 46.8181 -124.6294 249° West 434 499 15,200  Level Seattle Center
Wed 01:51:00 PM 46.7764 -124.7958 250° West 436 502 15,200  Level Seattle Center
Wed 01:52:01 PM 46.7356 -124.9419 248° West 396 456 15,200 -49 Level Seattle Center
Wed 01:53:02 PM 46.7017 -125.0619 248° West 330 380 15,100  Descending Seattle Center
Wed 01:54:03 PM 46.6742 -125.1678 249° West 294 338 15,200  Climbing Seattle Center
Wed 01:55:04 PM 46.6517 -125.2486 248° West 241 277 15,100 -344 Descending Seattle Center
Wed 01:56:05 PM 46.6342 -125.3081 247° West 182 209 14,500 -590 Descending Seattle Center
Wed 01:58:00 PM 46.5755 -125.5128 247° West  Level FlightAware Approximate
Wed 02:05:00 PM 46.5167 -125.7167 248° West  Level FlightAware Approximate
Wed 02:06:00 PM 46.4697 -125.6235 248° West  Level Estimated
Wed 02:07:00 PM 46.5167 -125.7167 248° West  Level FlightAware Approximate
Wed 02:08:00 PM 46.4697 -125.6235 248° West  Level Estimated
Wed 02:09:00 PM 46.5167 -125.7167 248° West  Level FlightAware Approximate
Wed 02:10:00 PM 46.4697 -125.6235 248° West  Level Estimated
Wed 02:11:00 PM 46.5167 -125.7167 248° West  Level FlightAware Approximate
Wed 02:12:00 PM 46.4697 -125.6235 248° West  Level Estimated
Wed 02:13:00 PM 46.5167 -125.7167 248° West  Level FlightAware Approximate

Login

Don't have an account? Register now (free) for customized features, flight alerts, and more!